Time;durP1;ratioP1;P1;durP2;ratioP2;P2;SDS_P1;SDS_P2;PMS_P1;PMS_P2;Temp;Humidity;BMP_temperature;BMP_pressure;BME280_temperature;BME280_humidity;BME280_pressure;Samples;Min_cycle;Max_cycle;Signal;HPM_P1;HPM_P2
2023/01/15 00:07:17;;;;;;;36.80;12.90;;;;;;;-3.54;100.00;101587.90;105712;1291;600462;-81
2023/01/15 00:10:05;;;;;;;38.70;13.90;;;;;;;-3.26;100.00;101585.48;108463;1266;64031;-80
2023/01/15 00:12:53;;;;;;;46.90;17.60;;;;;;;-3.14;100.00;101582.13;108399;1266;62731;-81
2023/01/15 00:15:40;;;;;;;51.40;19.10;;;;;;;-2.97;100.00;101576.86;108380;1266;74356;-77
2023/01/15 00:18:28;;;;;;;44.30;18.50;;;;;;;-2.64;100.00;101565.33;108306;1267;69606;-77
2023/01/15 00:21:15;;;;;;;34.80;13.90;;;;;;;-2.53;100.00;101564.75;108337;1263;160476;-77
2023/01/15 00:30:16;;;;;;;33.80;13.90;;;;;;;-1.83;100.00;101564.23;108650;1263;74099;-77
2023/01/15 00:33:03;;;;;;;28.30;12.60;;;;;;;-1.82;100.00;101559.77;108642;1263;71047;-77
2023/01/15 00:35:51;;;;;;;34.60;13.20;;;;;;;-1.76;100.00;101561.20;108436;1264;74575;-77
2023/01/15 00:38:38;;;;;;;40.50;15.30;;;;;;;-1.77;100.00;101563.55;108615;1266;62311;-77
2023/01/15 00:41:26;;;;;;;35.90;14.20;;;;;;;-1.48;100.00;101560.20;108551;1265;62481;-81
2023/01/15 00:44:13;;;;;;;44.30;14.80;;;;;;;-1.37;100.00;101557.90;108529;1264;75370;-80
2023/01/15 00:47:00;;;;;;;31.60;13.80;;;;;;;-1.35;100.00;101551.16;108532;1263;69926;-81
2023/01/15 00:49:49;;;;;;;30.00;12.30;;;;;;;-1.36;100.00;101549.39;108518;1264;74918;-81
2023/01/15 00:52:36;;;;;;;38.10;14.30;;;;;;;-1.26;100.00;101549.54;108624;1266;63338;-81
2023/01/15 00:55:24;;;;;;;30.10;12.00;;;;;;;-1.21;100.00;101544.39;108506;1263;61535;-81
2023/01/15 00:58:12;;;;;;;31.50;13.80;;;;;;;-1.23;100.00;101540.80;108559;1263;74193;-81
2023/01/15 01:00:59;;;;;;;25.90;12.00;;;;;;;-1.25;100.00;101533.95;108568;1263;71237;-82
2023/01/15 01:03:51;;;;;;;30.80;13.40;;;;;;;-1.25;100.00;101531.73;108590;1263;74706;-81
2023/01/15 01:06:38;;;;;;;32.50;14.50;;;;;;;-1.22;100.00;101535.14;108513;1266;62097;-81
2023/01/15 01:09:26;;;;;;;35.80;12.60;;;;;;;-1.18;100.00;101532.08;108583;1263;61307;-81
2023/01/15 01:12:14;;;;;;;34.30;14.50;;;;;;;-1.11;100.00;101532.64;108547;1263;75139;-81
2023/01/15 01:15:01;;;;;;;36.10;13.90;;;;;;;-1.07;100.00;101530.05;108412;1263;71037;-80
2023/01/15 01:17:49;;;;;;;30.70;13.20;;;;;;;-0.93;100.00;101533.23;108568;1263;74119;-77
2023/01/15 01:20:36;;;;;;;29.00;12.60;;;;;;;-0.80;100.00;101533.02;108497;1263;63051;-81
2023/01/15 01:23:25;;;;;;;30.90;11.20;;;;;;;-0.81;100.00;101534.79;108476;1263;61213;-81
2023/01/15 01:26:12;;;;;;;29.20;11.40;;;;;;;-0.86;100.00;101538.23;108569;1264;75251;-77
2023/01/15 01:29:00;;;;;;;28.00;12.40;;;;;;;-0.87;100.00;101539.20;108524;1264;71090;-77
2023/01/15 01:31:49;;;;;;;31.10;10.90;;;;;;;-0.87;100.00;101540.63;108472;1262;74793;-76
2023/01/15 01:34:37;;;;;;;25.80;10.50;;;;;;;-0.87;100.00;101537.36;108554;1263;63903;-76
2023/01/15 01:37:25;;;;;;;27.20;11.30;;;;;;;-0.89;100.00;101542.39;108480;1263;62323;-77
2023/01/15 01:40:12;;;;;;;25.10;10.70;;;;;;;-0.89;100.00;101538.81;108641;1263;74105;-77
2023/01/15 01:43:00;;;;;;;25.60;10.40;;;;;;;-0.90;100.00;101531.23;108437;1263;71081;-77
2023/01/15 01:45:47;;;;;;;26.30;10.90;;;;;;;-0.90;100.00;101525.00;108560;1263;74803;-77
2023/01/15 01:48:35;;;;;;;28.70;11.20;;;;;;;-0.92;100.00;101519.54;108559;1264;59429;-77
2023/01/15 01:51:24;;;;;;;30.00;12.50;;;;;;;-0.92;100.00;101515.05;108529;1263;61428;-81
2023/01/15 01:54:12;;;;;;;29.40;12.30;;;;;;;-0.89;100.00;101509.00;108356;1263;74155;-82
2023/01/15 01:57:00;;;;;;;23.00;10.70;;;;;;;-0.90;100.00;101512.77;108573;1263;70968;-81
2023/01/15 06:05:35;;;;;;;30.80;11.70;;;;;;;-3.91;100.00;101507.45;105775;1290;600574;-80
2023/01/15 06:08:23;;;;;;;47.20;17.40;;;;;;;-3.71;100.00;101509.27;108347;1268;62499;-81
2023/01/15 06:11:11;;;;;;;54.80;19.60;;;;;;;-3.51;100.00;101507.92;108411;1267;61142;-77
2023/01/15 06:13:58;;;;;;;55.10;23.50;;;;;;;-3.40;100.00;101508.55;108448;1267;73252;-80
2023/01/15 06:16:46;;;;;;;51.40;20.40;;;;;;;-3.20;100.00;101503.30;108433;1267;70289;-80
2023/01/15 06:19:33;;;;;;;46.20;18.40;;;;;;;-3.08;100.00;101501.02;108370;1267;111133;-81
2023/01/15 06:22:21;;;;;;;37.70;16.90;;;;;;;-2.88;100.00;101504.30;108506;1266;63290;-80
2023/01/15 06:25:08;;;;;;;36.50;16.90;;;;;;;-2.75;100.00;101503.23;108543;1264;61274;-81
2023/01/15 06:27:56;;;;;;;38.40;17.20;;;;;;;-2.62;100.00;101505.40;108578;1267;74568;-81
2023/01/15 06:30:43;;;;;;;38.70;15.40;;;;;;;-2.50;100.00;101497.63;108447;1264;69840;-77
2023/01/15 06:33:30;;;;;;;38.90;15.00;;;;;;;-2.33;100.00;101493.84;108488;1267;73694;-77
2023/01/15 06:36:20;;;;;;;33.50;14.70;;;;;;;-2.13;100.00;101496.09;108488;1267;63275;-77
2023/01/15 06:39:07;;;;;;;34.40;15.60;;;;;;;-2.01;100.00;101496.23;108567;1267;60348;-77
2023/01/15 06:48:07;;;;;;;42.70;14.20;;;;;;;-1.31;100.00;101483.59;108534;1264;74419;-77
2023/01/15 06:50:55;;;;;;;35.30;14.00;;;;;;;-1.18;100.00;101482.92;108493;1263;61572;-76
2023/01/15 06:53:42;;;;;;;33.00;12.50;;;;;;;-1.09;100.00;101481.80;108551;1265;62700;-77
2023/01/15 06:56:30;;;;;;;26.90;12.30;;;;;;;-0.81;100.00;101481.08;108560;1267;75146;-77
2023/01/15 06:59:17;;;;;;;30.80;13.10;;;;;;;-1.04;100.00;101479.03;108540;1263;69059;-77
2023/01/15 07:02:05;;;;;;;39.00;14.60;;;;;;;-1.07;100.00;101483.14;108574;1264;73635;-77
2023/01/15 07:04:52;;;;;;;27.50;12.80;;;;;;;-0.95;100.00;101485.05;108536;1264;59582;-77
2023/01/15 07:07:40;;;;;;;28.10;12.00;;;;;;;-0.94;100.00;101486.02;108552;1263;62664;-81
2023/01/15 07:10:27;;;;;;;31.20;12.20;;;;;;;-0.81;100.00;101484.90;108508;1263;75212;-77
2023/01/15 07:13:15;;;;;;;27.30;11.90;;;;;;;-0.75;100.00;101490.41;108484;1263;68786;-77
2023/01/15 07:16:03;;;;;;;26.10;12.20;;;;;;;-0.72;100.00;101493.28;108448;1266;73736;-77
2023/01/15 07:18:51;;;;;;;33.40;14.30;;;;;;;-0.69;100.00;101485.08;108510;1263;61935;-77
2023/01/15 07:21:38;;;;;;;40.30;14.10;;;;;;;-0.69;100.00;101485.58;108538;1263;61609;-78
2023/01/15 07:24:26;;;;;;;31.20;13.00;;;;;;;-0.74;100.00;101484.23;108443;1263;74149;-76
2023/01/15 07:27:13;;;;;;;34.00;14.50;;;;;;;-0.62;100.00;101490.60;108539;1263;70865;-78
2023/01/15 07:30:01;;;;;;;39.80;14.00;;;;;;;-0.44;100.00;101494.21;108476;1265;74762;-77
2023/01/15 07:32:48;;;;;;;30.20;14.70;;;;;;;-0.31;100.00;101492.90;108544;1263;60995;-77
2023/01/15 07:35:36;;;;;;;35.10;15.70;;;;;;;-0.24;100.00;101493.20;108503;1263;60383;-77
2023/01/15 07:38:23;;;;;;;35.60;16.00;;;;;;;-0.09;100.00;101497.36;108550;1263;73743;-77
2023/01/15 07:50:31;;;;;;;37.10;14.90;;;;;;;0.10;100.00;101508.20;108383;1263;62002;-78
2023/01/15 07:53:18;;;;;;;39.50;14.30;;;;;;;0.14;100.00;101507.40;108556;1266;75898;-78
2023/01/15 07:56:06;;;;;;;28.90;14.90;;;;;;;0.17;100.00;101507.40;108539;1263;70214;-77
2023/01/15 07:58:54;;;;;;;41.60;14.80;;;;;;;0.30;100.00;101502.32;108548;1264;74799;-77
2023/01/15 12:07:03;;;;;;;25.10;9.00;;;;;;;0.61;100.00;101270.94;105703;1290;600993;-82
2023/01/15 12:10:15;;;;;;;66.20;25.20;;;;;;;0.64;100.00;101275.71;108885;1256;62596;-82
2023/01/15 12:13:18;;;;;;;60.40;25.80;;;;;;;0.67;100.00;101272.68;109176;1255;60555;-82
2023/01/15 12:16:05;;;;;;;;;;;;;;;0.78;100.00;101267.35;109068;1256;74386;-82
2023/01/15 12:19:16;;;;;;;24.00;10.30;;;;;;;0.94;100.00;101267.94;109046;1256;70945;-83
2023/01/15 12:22:06;;;;;;;25.10;11.90;;;;;;;1.08;100.00;101264.02;109075;1253;71772;-82
2023/01/15 12:25:01;;;;;;;25.90;10.10;;;;;;;1.11;100.00;101262.42;109197;1253;61897;-83
2023/01/15 12:28:13;;;;;;;23.60;9.40;;;;;;;1.25;100.00;101254.89;109263;1250;61549;-83
2023/01/15 12:31:05;;;;;;;20.50;9.10;;;;;;;1.32;100.00;101254.52;109213;1253;74348;-83
2023/01/15 12:33:59;;;;;;;23.20;10.00;;;;;;;1.31;100.00;101251.64;109422;1251;70691;-83
2023/01/15 12:37:07;;;;;;;24.60;9.80;;;;;;;1.33;100.00;101249.95;109272;1254;73929;-82
2023/01/15 12:40:13;;;;;;;22.90;11.20;;;;;;;1.39;100.00;101238.59;109336;1251;61785;-82
2023/01/15 12:46:18;;;;;;;26.10;10.40;;;;;;;1.37;100.00;101239.51;109400;1251;74832;-82
2023/01/15 12:49:19;;;;;;;27.10;11.30;;;;;;;1.41;100.00;101231.68;109308;1251;67803;-83
2023/01/15 12:52:09;;;;;;;40.20;20.10;;;;;;;1.43;100.00;101223.83;109412;1255;73499;-83
2023/01/15 12:55:18;;;;;;;44.70;24.20;;;;;;;1.35;100.00;101217.94;109406;1251;61577;-83
2023/01/15 12:58:11;;;;;;;80.30;35.90;;;;;;;1.25;100.00;101217.73;109314;1251;62576;-82
2023/01/15 13:01:03;;;;;;;;;;;;;;;1.28;100.00;101215.80;109305;1256;75256;-83
2023/01/15 13:04:05;;;;;;;36.30;11.80;;;;;;;1.32;100.00;101218.84;109372;1251;68771;-83
2023/01/15 13:06:56;;;;;;;32.00;14.20;;;;;;;1.36;100.00;101207.84;109397;1251;75022;-82
2023/01/15 13:10:06;;;;;;;23.30;9.20;;;;;;;1.39;100.00;101209.14;109301;1250;60962;-82
2023/01/15 13:13:21;;;;;;;36.40;13.80;;;;;;;1.36;100.00;101205.48;109460;1251;62285;-83
2023/01/15 13:16:15;;;;;;;36.30;15.00;;;;;;;1.39;100.00;101213.20;109422;1256;74187;-82
2023/01/15 13:19:15;;;;;;;29.70;12.10;;;;;;;1.40;100.00;101218.05;109398;1251;70864;-82
2023/01/15 13:22:11;;;;;;;31.40;12.80;;;;;;;1.29;100.00;101223.10;109399;1250;75089;-83
2023/01/15 13:24:59;;;;;;;21.20;8.50;;;;;;;1.21;100.00;101232.77;109329;1256;61690;-82
2023/01/15 13:27:49;;;;;;;22.50;9.80;;;;;;;1.24;100.00;101235.45;109308;1251;62814;-82
2023/01/15 13:31:06;;;;;;;25.90;9.40;;;;;;;1.32;100.00;101240.42;109380;1252;75366;-82
2023/01/15 13:33:54;;;;;;;49.50;17.00;;;;;;;1.47;100.00;101235.52;109241;1251;70745;-83
2023/01/15 13:36:43;;;;;;;37.90;13.70;;;;;;;1.41;100.00;101236.63;109319;1257;73267;-82
2023/01/15 13:39:38;;;;;;;25.00;8.00;;;;;;;1.35;100.00;101235.55;109319;1253;63305;-82
2023/01/15 13:42:32;;;;;;;33.60;8.00;;;;;;;1.30;100.00;101233.34;109243;1251;60879;-82
2023/01/15 13:45:41;;;;;;;25.00;7.90;;;;;;;1.19;100.00;101234.84;109289;1254;74961;-82
2023/01/15 13:48:30;;;;;;;26.90;7.50;;;;;;;1.03;100.00;101234.95;109355;1250;70150;-82
2023/01/15 13:51:36;;;;;;;19.20;8.20;;;;;;;0.91;100.00;101237.35;109398;1251;75348;-82
2023/01/15 13:54:24;;;;;;;29.60;7.80;;;;;;;0.75;100.00;101240.31;109321;1252;61526;-83
2023/01/15 13:57:33;;;;;;;20.70;6.90;;;;;;;0.75;100.00;101238.67;109239;1254;62608;-83
2023/01/15 18:08:01;;;;;;;56.80;20.50;;;;;;;-1.17;100.00;101127.56;105831;1290;600979;-89
2023/01/15 18:10:49;;;;;;;82.60;26.90;;;;;;;-1.08;100.00;101127.10;108736;1259;63004;-87
2023/01/15 18:13:36;;;;;;;97.50;33.00;;;;;;;-0.99;100.00;101124.54;108824;1261;62463;-86
2023/01/15 18:16:25;;;;;;;72.20;31.00;;;;;;;-0.95;100.00;101118.48;108878;1259;74301;-85
2023/01/15 18:19:12;;;;;;;50.60;18.50;;;;;;;-0.86;100.00;101119.40;108870;1260;69758;-85
2023/01/15 18:22:00;;;;;;;68.40;22.60;;;;;;;-0.76;100.00;101116.88;108923;1257;135796;-85
2023/01/15 18:24:47;;;;;;;43.00;17.20;;;;;;;-0.67;100.00;101113.60;108999;1257;62140;-86
2023/01/15 18:27:41;;;;;;;44.70;18.90;;;;;;;-0.59;100.00;101115.17;109008;1256;61152;-86
2023/01/15 18:30:29;;;;;;;52.00;19.90;;;;;;;-0.48;100.00;101111.04;108970;1257;74342;-85
2023/01/15 18:33:16;;;;;;;51.40;18.80;;;;;;;-0.39;100.00;101105.60;109004;1256;71146;-85
2023/01/15 18:36:05;;;;;;;116.40;41.60;;;;;;;-0.34;100.00;101102.91;108956;1257;74725;-86
2023/01/15 18:38:54;;;;;;;38.50;17.10;;;;;;;-0.30;100.00;101107.50;108961;1256;62403;-85
2023/01/15 18:47:36;;;;;;;74.80;25.40;;;;;;;-0.11;100.00;101103.17;108959;1256;69709;-84
2023/01/15 18:50:24;;;;;;;62.60;22.70;;;;;;;-0.14;100.00;101097.68;108953;1256;74960;-85
2023/01/15 18:53:12;;;;;;;56.90;21.30;;;;;;;-0.10;100.00;101094.55;108971;1256;60418;-87
2023/01/15 18:56:01;;;;;;;34.90;14.50;;;;;;;-0.02;100.00;101091.60;108993;1256;61411;-86
2023/01/15 18:58:49;;;;;;;42.90;15.80;;;;;;;0.00;100.00;101083.97;108982;1257;74416;-85
2023/01/15 19:01:37;;;;;;;39.30;15.40;;;;;;;0.05;100.00;101083.39;109002;1257;70450;-87
2023/01/15 19:04:25;;;;;;;41.60;18.20;;;;;;;0.17;100.00;101080.39;108997;1257;74885;-85
2023/01/15 19:07:12;;;;;;;39.20;15.60;;;;;;;0.14;100.00;101080.20;108932;1260;61285;-85
2023/01/15 19:10:00;;;;;;;42.60;15.60;;;;;;;0.23;100.00;101079.80;108998;1257;62376;-85
2023/01/15 19:12:47;;;;;;;37.40;13.80;;;;;;;0.29;100.00;101078.36;108978;1257;72956;-86
2023/01/15 19:18:41;;;;;;;32.40;13.40;;;;;;;0.39;100.00;101074.33;108899;1257;73104;-87
2023/01/15 19:21:29;;;;;;;29.60;11.60;;;;;;;0.46;100.00;101068.66;108889;1257;61668;-85
2023/01/15 19:24:16;;;;;;;23.30;10.50;;;;;;;0.60;100.00;101069.98;108905;1257;62373;-85
2023/01/15 19:27:04;;;;;;;27.10;11.50;;;;;;;0.49;100.00;101062.81;108910;1257;75401;-85
2023/01/15 19:29:51;;;;;;;29.20;9.80;;;;;;;0.49;100.00;101060.16;108901;1257;68558;-87
2023/01/15 19:32:39;;;;;;;25.40;9.90;;;;;;;0.57;100.00;101062.48;108914;1257;73798;-85
2023/01/15 19:35:26;;;;;;;29.10;9.70;;;;;;;0.67;100.00;101061.50;108909;1260;60445;-86
2023/01/15 19:38:14;;;;;;;30.30;10.30;;;;;;;0.63;100.00;101062.47;108899;1257;61555;-85
2023/01/15 19:50:41;;;;;;;26.30;8.10;;;;;;;0.64;100.00;101044.89;108890;1257;64337;-85
2023/01/15 19:53:28;;;;;;;21.50;7.90;;;;;;;0.69;100.00;101039.41;108928;1262;61729;-86
2023/01/15 19:56:16;;;;;;;17.40;7.60;;;;;;;0.81;100.00;101041.83;108955;1257;75352;-84
2023/01/15 19:59:03;;;;;;;23.60;8.10;;;;;;;0.64;100.00;101044.02;108939;1257;69295;-87
